createdAt,value
2022-11-28T00:00:06.513Z,19.05
2022-11-28T00:02:33.085Z,18.38
2022-11-28T00:04:59.612Z,18.10
2022-11-28T00:07:26.152Z,18.48
2022-11-28T00:09:53.031Z,18.15
2022-11-28T00:12:19.546Z,18.65
2022-11-28T00:14:45.987Z,20.83
2022-11-28T00:17:12.394Z,19.30
2022-11-28T00:19:38.806Z,18.15
2022-11-28T00:22:05.266Z,19.90
2022-11-28T00:24:31.699Z,17.27
2022-11-28T00:26:58.132Z,19.17
2022-11-28T00:29:24.607Z,16.40
2022-11-28T00:31:51.082Z,18.88
2022-11-28T00:34:17.554Z,19.00
2022-11-28T00:36:46.164Z,17.00
2022-11-28T00:39:13.525Z,17.58
2022-11-28T00:41:40.230Z,25.40
2022-11-28T00:44:07.130Z,19.63
2022-11-28T00:46:33.704Z,20.02
2022-11-28T00:49:00.180Z,16.95
2022-11-28T00:51:30.141Z,19.02
2022-11-28T00:53:58.244Z,20.10
2022-11-28T00:56:31.205Z,20.27
2022-11-28T00:58:58.524Z,19.00
2022-11-28T01:01:29.573Z,18.02
2022-11-28T01:03:58.518Z,17.85
2022-11-28T01:06:27.804Z,18.05
2022-11-28T01:08:55.312Z,18.10
2022-11-28T01:11:22.521Z,16.55
2022-11-28T01:13:49.762Z,16.35
2022-11-28T01:16:16.693Z,14.52
2022-11-28T01:18:43.237Z,14.02
2022-11-28T01:21:09.816Z,13.10
2022-11-28T01:23:36.616Z,12.35
2022-11-28T01:26:05.389Z,12.40
2022-11-28T01:28:31.828Z,11.02
2022-11-28T01:31:07.591Z,12.25
2022-11-28T01:33:34.047Z,14.32
2022-11-28T01:36:00.780Z,14.02
2022-11-28T01:38:28.141Z,13.20
2022-11-28T01:40:55.643Z,12.38
2022-11-28T01:43:23.010Z,14.10
2022-11-28T01:45:49.675Z,13.45
2022-11-28T01:48:22.941Z,14.10
2022-11-28T01:50:52.381Z,14.70
2022-11-28T01:53:18.896Z,18.45
2022-11-28T01:56:28.955Z,14.50
2022-11-28T01:59:01.936Z,13.60
2022-11-28T02:01:28.663Z,16.70
2022-11-28T02:03:57.873Z,16.55
2022-11-28T02:06:25.266Z,15.63
2022-11-28T02:08:52.967Z,13.95
2022-11-28T02:11:25.452Z,14.80
2022-11-28T02:14:11.264Z,16.60
2022-11-28T02:17:07.208Z,14.45
2022-11-28T02:19:51.597Z,16.00
2022-11-28T02:22:47.308Z,19.88
2022-11-28T02:25:51.493Z,16.60
2022-11-28T02:28:43.900Z,19.52
2022-11-28T02:31:22.539Z,20.67
2022-11-28T02:33:53.902Z,21.83
2022-11-28T02:36:26.238Z,18.35
2022-11-28T02:39:02.513Z,21.25
2022-11-28T02:41:37.217Z,20.58
2022-11-28T02:44:11.269Z,19.58
2022-11-28T02:46:49.807Z,18.58
2022-11-28T02:49:41.143Z,21.52
2022-11-28T02:52:16.684Z,17.45
2022-11-28T02:54:44.360Z,17.33
2022-11-28T02:57:11.056Z,21.10
2022-11-28T02:59:37.490Z,18.38
2022-11-28T03:02:11.385Z,20.25
2022-11-28T03:04:44.376Z,15.70
2022-11-28T03:07:44.748Z,17.20
2022-11-28T03:10:31.482Z,21.65
2022-11-28T03:13:36.336Z,16.08
2022-11-28T03:16:27.934Z,20.83
2022-11-28T03:19:20.543Z,18.27
2022-11-28T03:21:54.726Z,18.10
2022-11-28T03:24:33.684Z,22.48
2022-11-28T03:27:10.106Z,21.13
2022-11-28T03:30:09.111Z,21.63
2022-11-28T03:32:39.251Z,21.25
2022-11-28T03:35:20.563Z,21.73
2022-11-28T03:37:53.056Z,20.05
2022-11-28T03:40:25.453Z,21.15
2022-11-28T03:42:59.051Z,24.92
2022-11-28T03:45:29.781Z,22.52
2022-11-28T03:48:01.696Z,26.50
2022-11-28T03:50:36.044Z,19.55
2022-11-28T03:53:09.958Z,23.08
2022-11-28T03:55:53.919Z,23.00
2022-11-28T03:58:28.141Z,22.52
2022-11-28T04:01:28.606Z,21.70
2022-11-28T04:04:35.817Z,25.17
2022-11-28T04:07:17.883Z,23.30
2022-11-28T04:09:53.829Z,25.30
2022-11-28T04:12:32.416Z,23.08
2022-11-28T04:15:10.589Z,20.98
2022-11-28T04:17:47.205Z,21.73
2022-11-28T04:20:19.001Z,23.45
2022-11-28T04:22:52.712Z,23.20
2022-11-28T04:25:22.119Z,22.35
2022-11-28T04:27:54.133Z,23.08
2022-11-28T04:30:20.721Z,23.67
2022-11-28T04:32:51.719Z,26.15
2022-11-28T04:35:29.373Z,25.85
2022-11-28T04:37:58.853Z,21.75
2022-11-28T04:40:27.474Z,22.73
2022-11-28T04:42:59.520Z,23.65
2022-11-28T04:45:35.389Z,24.48
2022-11-28T04:48:02.690Z,23.77
2022-11-28T04:50:37.409Z,25.13
2022-11-28T04:53:13.894Z,24.90
2022-11-28T04:55:52.630Z,22.25
2022-11-28T04:58:32.917Z,22.17
2022-11-28T05:01:00.507Z,25.63
2022-11-28T05:03:29.037Z,23.98
2022-11-28T05:05:55.689Z,26.23
2022-11-28T05:08:22.480Z,24.73
2022-11-28T05:10:49.210Z,27.45
2022-11-28T05:13:15.729Z,23.60
2022-11-28T05:15:42.171Z,27.38
2022-11-28T05:18:09.250Z,22.20
2022-11-28T05:20:37.772Z,26.58
2022-11-28T05:23:04.462Z,25.23
2022-11-28T05:25:30.944Z,23.70
2022-11-28T05:27:57.393Z,23.58
2022-11-28T05:30:23.852Z,20.10
2022-11-28T05:32:50.284Z,22.25
2022-11-28T05:35:17.028Z,19.42
2022-11-28T05:37:43.547Z,25.00
2022-11-28T05:40:10.282Z,22.75
2022-11-28T05:42:36.936Z,19.90
2022-11-28T05:45:04.423Z,21.42
2022-11-28T05:47:32.593Z,18.80
2022-11-28T05:49:59.311Z,20.88
2022-11-28T05:52:25.804Z,20.63
2022-11-28T05:54:52.262Z,18.83
2022-11-28T05:57:18.707Z,21.88
2022-11-28T05:59:45.465Z,19.80
2022-11-28T06:02:12.040Z,18.30
2022-11-28T06:04:41.756Z,18.90
2022-11-28T06:07:08.698Z,21.23
2022-11-28T06:09:35.145Z,21.75
2022-11-28T06:12:01.897Z,23.33
2022-11-28T06:14:28.473Z,23.23
2022-11-28T06:16:54.955Z,24.23
2022-11-28T06:19:21.519Z,24.55
2022-11-28T06:21:50.185Z,22.15
2022-11-28T06:24:16.675Z,25.92
2022-11-28T06:26:43.208Z,25.85
2022-11-28T06:29:09.630Z,25.20
2022-11-28T06:31:36.143Z,21.58
2022-11-28T06:34:02.657Z,23.92
2022-11-28T06:36:30.680Z,22.73
2022-11-28T06:38:57.563Z,22.38
2022-11-28T06:41:24.244Z,21.63
2022-11-28T06:43:51.473Z,24.63
2022-11-28T06:46:20.124Z,22.48
2022-11-28T06:48:47.971Z,21.88
2022-11-28T06:51:15.160Z,24.95
2022-11-28T06:53:42.417Z,24.15
2022-11-28T06:56:14.691Z,22.48
2022-11-28T06:58:42.150Z,24.50
2022-11-28T07:01:19.293Z,24.67
2022-11-28T07:03:46.839Z,27.85
2022-11-28T07:06:15.298Z,25.65
2022-11-28T07:08:42.773Z,22.13
2022-11-28T07:11:17.889Z,25.63
2022-11-28T07:13:45.920Z,22.48
2022-11-28T07:16:19.106Z,22.58
2022-11-28T07:18:46.380Z,22.25
2022-11-28T07:21:14.690Z,21.60
2022-11-28T07:23:43.440Z,24.35
2022-11-28T07:26:11.450Z,20.88
2022-11-28T07:28:37.855Z,22.73
2022-11-28T07:31:13.538Z,23.45
2022-11-28T07:33:42.247Z,25.33
2022-11-28T07:36:13.182Z,22.02
2022-11-28T07:38:39.668Z,24.52
2022-11-28T07:41:10.776Z,23.00
2022-11-28T07:43:37.975Z,26.65
2022-11-28T07:46:09.872Z,21.10
2022-11-28T07:48:36.405Z,22.73
2022-11-28T07:51:11.538Z,21.58
2022-11-28T07:53:38.796Z,23.00
2022-11-28T07:56:08.000Z,23.90
2022-11-28T07:58:35.668Z,22.65
2022-11-28T08:01:16.655Z,20.90
2022-11-28T08:03:46.945Z,23.85
2022-11-28T08:06:14.936Z,22.60
2022-11-28T08:08:41.347Z,25.90
2022-11-28T08:11:09.448Z,21.40
2022-11-28T08:13:37.505Z,25.92
2022-11-28T08:16:09.225Z,25.23
2022-11-28T08:18:36.453Z,22.98
2022-11-28T08:21:08.536Z,23.65
2022-11-28T08:23:36.343Z,22.23
2022-11-28T08:26:04.265Z,24.70
2022-11-28T08:28:31.385Z,28.17
2022-11-28T08:30:59.668Z,26.52
2022-11-28T08:33:26.374Z,27.15
2022-11-28T08:35:52.793Z,24.73
2022-11-28T08:38:19.698Z,27.70
2022-11-28T08:40:46.271Z,25.48
2022-11-28T08:43:13.094Z,24.95
2022-11-28T08:45:39.571Z,24.15
2022-11-28T08:48:06.719Z,23.55
2022-11-28T08:50:33.184Z,24.73
2022-11-28T08:53:01.692Z,24.38
2022-11-28T08:55:36.577Z,23.17
2022-11-28T08:58:05.705Z,23.95
2022-11-28T09:00:32.295Z,25.73
2022-11-28T09:02:58.733Z,23.92
2022-11-28T09:05:25.197Z,24.30
2022-11-28T09:07:54.997Z,28.85
2022-11-28T09:10:22.226Z,20.55
2022-11-28T09:12:48.672Z,23.65
2022-11-28T09:15:15.122Z,27.10
2022-11-28T09:17:41.507Z,22.48
2022-11-28T09:20:08.404Z,23.48
2022-11-28T09:22:34.852Z,23.15
2022-11-28T09:25:01.321Z,24.25
2022-11-28T09:27:28.041Z,21.15
2022-11-28T09:29:54.516Z,27.00
2022-11-28T09:32:21.389Z,23.50
2022-11-28T09:34:47.836Z,28.02
2022-11-28T09:37:14.288Z,22.38
2022-11-28T09:40:04.780Z,25.15
2022-11-28T09:42:30.764Z,24.05
2022-11-28T09:45:12.801Z,20.35
2022-11-28T09:47:42.817Z,23.08
2022-11-28T09:50:16.804Z,21.17
2022-11-28T09:53:06.845Z,21.23
2022-11-28T09:55:48.145Z,20.55
2022-11-28T09:58:19.167Z,24.73
2022-11-28T10:01:19.726Z,20.13
2022-11-28T10:03:49.303Z,21.65
2022-11-28T10:06:25.925Z,20.15
2022-11-28T10:09:07.004Z,20.67
2022-11-28T10:11:54.030Z,21.67
2022-11-28T10:14:42.913Z,20.48
2022-11-28T10:17:40.053Z,25.00
2022-11-28T10:20:11.530Z,23.38
2022-11-28T10:22:42.119Z,22.58
2022-11-28T10:25:18.053Z,22.17
2022-11-28T10:27:46.043Z,23.00
2022-11-28T10:30:23.462Z,24.58
2022-11-28T10:33:11.874Z,22.50
2022-11-28T10:35:49.477Z,21.10
2022-11-28T10:38:17.162Z,21.23
2022-11-28T10:40:46.289Z,20.85
2022-11-28T10:43:29.155Z,23.52
2022-11-28T10:46:14.403Z,25.40
2022-11-28T10:49:14.785Z,28.05
2022-11-28T10:51:56.361Z,22.20
2022-11-28T10:54:59.948Z,24.10
2022-11-28T10:57:35.451Z,20.48
2022-11-28T11:00:14.895Z,22.98
2022-11-28T11:03:04.696Z,21.98
2022-11-28T11:05:35.064Z,31.38
2022-11-28T11:08:17.934Z,24.40
2022-11-28T11:10:59.631Z,24.77
2022-11-28T11:13:28.772Z,25.50
2022-11-28T11:16:03.517Z,26.88
2022-11-28T11:18:34.618Z,23.38
2022-11-28T11:21:13.355Z,21.25
2022-11-28T11:23:39.762Z,22.13
2022-11-28T11:26:10.345Z,19.35
2022-11-28T11:28:47.853Z,32.05
2022-11-28T11:31:26.545Z,24.73
2022-11-28T11:34:05.673Z,24.15
2022-11-28T11:36:35.085Z,25.08
2022-11-28T11:39:06.178Z,22.02
2022-11-28T11:41:33.677Z,24.55
2022-11-28T11:44:15.566Z,16.95
2022-11-28T11:46:55.968Z,16.25
2022-11-28T11:49:34.464Z,18.63
2022-11-28T11:52:04.902Z,20.85
2022-11-28T11:54:31.716Z,34.00
2022-11-28T11:57:25.056Z,20.33
2022-11-28T11:59:58.112Z,21.02
2022-11-28T12:02:41.704Z,20.77
2022-11-28T12:07:46.955Z,16.38
2022-11-28T12:10:18.654Z,19.73
2022-11-28T12:12:45.194Z,19.65
2022-11-28T12:15:53.597Z,16.88
2022-11-28T12:18:35.045Z,17.55
2022-11-28T12:21:43.357Z,19.42
2022-11-28T12:24:21.680Z,20.23
2022-11-28T12:26:52.495Z,19.00
2022-11-28T12:29:32.315Z,18.27
2022-11-28T12:32:04.542Z,17.05
2022-11-28T12:35:06.959Z,16.77
2022-11-28T12:38:10.595Z,19.73
2022-11-28T12:40:40.075Z,18.25
2022-11-28T12:43:42.724Z,20.35
2022-11-28T12:46:20.961Z,14.63
2022-11-28T12:49:17.570Z,18.02
2022-11-28T12:52:16.691Z,21.25
2022-11-28T12:55:11.550Z,15.50
2022-11-28T12:58:07.159Z,18.80
2022-11-28T13:00:42.968Z,15.95
2022-11-28T13:03:37.602Z,18.70
2022-11-28T13:06:25.177Z,20.45
2022-11-28T13:09:03.758Z,20.10
2022-11-28T13:11:52.299Z,23.25
2022-11-28T13:14:28.003Z,19.40
2022-11-28T13:16:58.569Z,18.58
2022-11-28T13:19:32.987Z,15.57
2022-11-28T13:22:15.982Z,15.90
2022-11-28T13:25:12.269Z,17.90
2022-11-28T13:27:48.979Z,18.50
2022-11-28T13:30:31.166Z,19.23
2022-11-28T13:33:27.583Z,17.73
2022-11-28T13:35:54.970Z,17.05
2022-11-28T13:38:35.999Z,14.82
2022-11-28T13:41:43.009Z,17.10
2022-11-28T13:44:15.690Z,21.90
2022-11-28T13:46:44.401Z,17.83
2022-11-28T13:49:24.123Z,18.45
2022-11-28T13:52:18.433Z,22.73
2022-11-28T13:54:52.408Z,18.40
2022-11-28T13:57:27.343Z,18.83
2022-11-28T13:59:56.876Z,16.05
2022-11-28T14:02:36.277Z,17.38
2022-11-28T14:05:04.806Z,20.52
2022-11-28T14:07:33.734Z,19.40
2022-11-28T14:10:24.270Z,17.17
2022-11-28T14:13:28.955Z,16.60
2022-11-28T14:16:19.651Z,17.20
2022-11-28T14:19:04.343Z,17.17
2022-11-28T14:21:48.946Z,22.05
2022-11-28T14:24:24.998Z,17.85
2022-11-28T14:26:59.446Z,20.27
2022-11-28T14:29:34.969Z,21.23
2022-11-28T14:34:49.013Z,16.13
2022-11-28T14:37:27.364Z,22.27
2022-11-28T14:39:56.057Z,17.42
2022-11-28T14:42:58.357Z,17.02
2022-11-28T14:45:41.207Z,16.92
2022-11-28T14:48:17.947Z,21.88
2022-11-28T14:50:49.979Z,17.52
2022-11-28T14:53:34.729Z,19.00
2022-11-28T14:56:16.092Z,20.63
2022-11-28T14:58:48.373Z,25.13
2022-11-28T15:01:30.512Z,18.55
2022-11-28T15:04:08.190Z,19.80
2022-11-28T15:06:38.206Z,20.48
2022-11-28T15:09:14.334Z,19.92
2022-11-28T15:11:40.694Z,20.73
2022-11-28T15:14:23.215Z,23.52
2022-11-28T15:16:53.250Z,22.35
2022-11-28T15:19:34.264Z,20.42
2022-11-28T15:22:01.226Z,17.67
2022-11-28T15:24:34.150Z,21.73
2022-11-28T15:27:06.279Z,20.40
2022-11-28T15:29:33.353Z,22.67
2022-11-28T15:32:01.164Z,16.65
2022-11-28T15:34:30.574Z,18.65
2022-11-28T15:37:02.350Z,23.50
2022-11-28T15:39:39.823Z,23.83
2022-11-28T15:42:21.360Z,21.67
2022-11-28T15:44:51.055Z,21.88
2022-11-28T15:47:20.306Z,20.50
2022-11-28T15:49:58.827Z,22.05
2022-11-28T15:52:25.232Z,23.23
2022-11-28T15:54:51.718Z,25.95
2022-11-28T15:57:25.036Z,26.60
2022-11-28T15:59:52.084Z,20.95
2022-11-28T16:02:26.473Z,23.77
2022-11-28T16:05:00.524Z,26.55
2022-11-28T16:07:27.130Z,21.60
2022-11-28T16:10:00.252Z,21.00
2022-11-28T16:12:27.857Z,16.40
2022-11-28T16:14:58.829Z,20.20
2022-11-28T16:17:32.310Z,19.75
2022-11-28T16:22:34.354Z,23.65
2022-11-28T16:25:13.980Z,22.83
2022-11-28T16:27:42.931Z,21.70
2022-11-28T16:30:25.185Z,18.73
2022-11-28T16:32:53.586Z,19.73
2022-11-28T16:35:37.827Z,25.38
2022-11-28T16:38:25.231Z,26.05
2022-11-28T16:40:59.658Z,24.35
2022-11-28T16:43:40.210Z,22.75
2022-11-28T16:46:16.230Z,21.77
2022-11-28T16:48:57.530Z,22.52
2022-11-28T16:51:30.497Z,26.27
2022-11-28T16:53:59.546Z,25.02
2022-11-28T16:56:29.508Z,23.60
2022-11-28T16:59:11.322Z,25.17
2022-11-28T17:01:38.530Z,19.15
2022-11-28T17:04:05.741Z,21.40
2022-11-28T17:06:34.373Z,23.00
2022-11-28T17:09:01.688Z,22.88
2022-11-28T17:11:32.681Z,26.45
2022-11-28T17:14:02.531Z,24.02
2022-11-28T17:16:33.362Z,28.17
2022-11-28T17:19:00.009Z,27.30
2022-11-28T17:21:33.118Z,23.33
2022-11-28T17:24:01.084Z,30.63
2022-11-28T17:26:27.538Z,23.63
2022-11-28T17:28:54.197Z,19.77
2022-11-28T17:31:22.386Z,19.27
2022-11-28T17:33:48.843Z,14.25
2022-11-28T17:36:15.770Z,15.50
2022-11-28T17:38:42.216Z,11.93
2022-11-28T17:41:13.733Z,12.70
2022-11-28T17:43:41.119Z,8.70
2022-11-28T17:46:07.653Z,4.78
2022-11-28T17:48:34.148Z,4.63
2022-11-28T17:51:02.131Z,3.08
2022-11-28T17:53:28.694Z,3.92
2022-11-28T17:55:59.504Z,3.38
2022-11-28T17:58:26.902Z,4.20
2022-11-28T18:01:00.269Z,2.20
2022-11-28T18:03:28.082Z,2.17
2022-11-28T18:05:54.544Z,2.03
2022-11-28T18:08:22.236Z,2.65
2022-11-28T18:10:49.505Z,2.90
2022-11-28T18:13:17.526Z,4.78
2022-11-28T18:15:46.981Z,3.75
2022-11-28T18:18:13.788Z,3.10
2022-11-28T18:20:40.224Z,2.55
2022-11-28T18:23:06.729Z,1.73
2022-11-28T18:25:33.221Z,2.13
2022-11-28T18:27:59.618Z,1.42
2022-11-28T18:30:26.050Z,2.95
2022-11-28T18:32:52.607Z,2.70
2022-11-28T18:35:19.549Z,2.00
2022-11-28T18:37:46.121Z,0.82
2022-11-28T18:40:13.164Z,2.00
2022-11-28T18:42:40.036Z,0.88
2022-11-28T18:45:07.082Z,2.10
2022-11-28T18:47:35.329Z,2.22
2022-11-28T18:50:01.825Z,0.80
2022-11-28T18:52:28.262Z,1.27
2022-11-28T18:54:54.678Z,1.95
2022-11-28T18:57:21.062Z,2.65
2022-11-28T18:59:53.039Z,1.48
2022-11-28T19:02:21.737Z,2.40
2022-11-28T19:04:48.248Z,3.22
2022-11-28T19:07:14.785Z,1.38
2022-11-28T19:09:41.483Z,1.45
2022-11-28T19:12:08.160Z,2.58
2022-11-28T19:14:34.675Z,3.92
2022-11-28T19:17:02.187Z,2.08
2022-11-28T19:19:28.770Z,1.98
2022-11-28T19:21:55.233Z,2.40
2022-11-28T19:24:21.754Z,3.33
2022-11-28T19:26:48.158Z,4.20
2022-11-28T19:29:14.684Z,6.07
2022-11-28T19:31:42.044Z,3.60
2022-11-28T19:34:13.889Z,5.70
2022-11-28T19:36:42.578Z,4.22
2022-11-28T19:39:14.963Z,2.70
2022-11-28T19:41:41.584Z,2.38
2022-11-28T19:44:10.370Z,3.55
2022-11-28T19:46:37.359Z,3.60
2022-11-28T19:49:08.672Z,3.33
2022-11-28T19:51:35.126Z,3.33
2022-11-28T19:54:03.833Z,3.08
2022-11-28T19:56:31.452Z,3.00
2022-11-28T19:58:58.898Z,3.15
2022-11-28T20:01:25.995Z,3.22
2022-11-28T20:03:53.085Z,4.13
2022-11-28T20:06:23.415Z,3.25
2022-11-28T20:08:51.355Z,3.17
2022-11-28T20:11:24.647Z,3.38
2022-11-28T20:14:06.539Z,5.93
2022-11-28T20:16:34.975Z,3.40
2022-11-28T20:19:02.041Z,3.03
2022-11-28T20:21:29.344Z,2.63
2022-11-28T20:23:59.493Z,7.45
2022-11-28T20:26:27.026Z,1.15
2022-11-28T20:28:55.263Z,2.05
2022-11-28T20:31:27.809Z,5.15
2022-11-28T20:33:54.599Z,3.53
2022-11-28T20:36:23.727Z,3.95
2022-11-28T20:38:51.130Z,1.33
2022-11-28T20:41:19.115Z,0.57
2022-11-28T20:43:46.390Z,1.55
2022-11-28T20:46:17.610Z,1.83
2022-11-28T20:48:44.917Z,1.85
2022-11-28T20:51:15.471Z,1.88
2022-11-28T20:53:41.950Z,0.95
2022-11-28T20:56:12.267Z,1.13
2022-11-28T20:58:39.010Z,1.05
2022-11-28T21:01:06.059Z,2.30
2022-11-28T21:03:32.881Z,2.05
2022-11-28T21:06:01.199Z,1.50
2022-11-28T21:08:31.332Z,0.95
2022-11-28T21:10:57.868Z,5.25
2022-11-28T21:13:24.393Z,1.98
2022-11-28T21:15:53.407Z,2.28
2022-11-28T21:18:19.939Z,3.10
2022-11-28T21:20:46.621Z,4.05
2022-11-28T21:23:14.960Z,8.85
2022-11-28T21:25:43.199Z,7.07
2022-11-28T21:28:10.233Z,2.60
2022-11-28T21:30:46.413Z,2.20
2022-11-28T21:33:13.307Z,2.28
2022-11-28T21:35:40.360Z,2.95
2022-11-28T21:38:07.558Z,2.70
2022-11-28T21:40:34.097Z,2.95
2022-11-28T21:43:00.587Z,1.40
2022-11-28T21:45:27.042Z,2.72
2022-11-28T21:47:53.587Z,2.85
2022-11-28T21:50:20.053Z,6.68
2022-11-28T21:52:46.494Z,2.35
2022-11-28T21:55:12.964Z,6.07
2022-11-28T21:57:42.074Z,4.95
2022-11-28T22:00:25.683Z,5.13
2022-11-28T22:03:02.541Z,3.83
2022-11-28T22:05:43.110Z,8.25
2022-11-28T22:08:10.768Z,4.93
2022-11-28T22:10:37.711Z,6.13
2022-11-28T22:13:04.110Z,5.75
2022-11-28T22:15:30.542Z,7.38
2022-11-28T22:17:57.002Z,7.75
2022-11-28T22:20:23.470Z,5.18
2022-11-28T22:22:50.184Z,2.92
2022-11-28T22:25:16.762Z,4.28
2022-11-28T22:27:43.224Z,4.88
2022-11-28T22:30:10.232Z,4.35
2022-11-28T22:32:36.674Z,3.47
2022-11-28T22:35:03.309Z,7.63
2022-11-28T22:37:29.735Z,9.23
2022-11-28T22:39:56.183Z,6.47
2022-11-28T22:42:22.621Z,6.43
2022-11-28T22:44:49.022Z,6.22
2022-11-28T22:47:15.449Z,7.05
2022-11-28T22:49:41.861Z,5.97
2022-11-28T22:52:08.299Z,6.80
2022-11-28T22:54:34.820Z,5.60
2022-11-28T22:57:01.332Z,4.63
2022-11-28T22:59:27.754Z,5.57
2022-11-28T23:01:54.400Z,9.57
2022-11-28T23:04:20.919Z,2.60
2022-11-28T23:06:47.330Z,8.23
2022-11-28T23:09:14.684Z,2.53
2022-11-28T23:11:41.529Z,6.68
2022-11-28T23:14:11.383Z,3.13
2022-11-28T23:16:39.752Z,3.33
2022-11-28T23:19:11.899Z,4.72
2022-11-28T23:21:40.458Z,4.50
2022-11-28T23:24:07.759Z,6.40
2022-11-28T23:26:34.826Z,8.75
2022-11-28T23:29:02.723Z,6.80
2022-11-28T23:31:32.390Z,7.65
2022-11-28T23:33:59.606Z,7.45
2022-11-28T23:36:28.894Z,4.05
2022-11-28T23:38:57.711Z,8.85
2022-11-28T23:41:25.385Z,5.55
2022-11-28T23:43:51.847Z,4.32
2022-11-28T23:46:19.421Z,7.60
2022-11-28T23:48:47.183Z,6.90
2022-11-28T23:51:15.281Z,4.68
2022-11-28T23:53:42.941Z,5.75
2022-11-28T23:56:15.474Z,9.23
2022-11-28T23:58:42.473Z,6.50
